createdAt,value
2018-03-20T00:01:16.943Z,6.77
2018-03-20T00:04:19.377Z,5.30
2018-03-20T00:07:21.853Z,4.70
2018-03-20T00:10:24.288Z,4.30
2018-03-20T00:13:26.783Z,5.10
2018-03-20T00:16:29.351Z,4.97
2018-03-20T00:19:31.802Z,4.20
2018-03-20T00:22:34.302Z,4.40
2018-03-20T00:25:36.744Z,4.90
2018-03-20T00:28:39.213Z,4.43
2018-03-20T00:31:41.654Z,5.07
2018-03-20T00:34:44.129Z,4.80
2018-03-20T00:37:46.589Z,4.87
2018-03-20T00:40:49.129Z,4.80
2018-03-20T00:43:51.610Z,4.83
2018-03-20T00:46:54.164Z,6.60
2018-03-20T00:49:56.655Z,5.70
2018-03-20T00:52:59.119Z,5.77
2018-03-20T00:56:01.579Z,4.80
2018-03-20T00:59:04.100Z,4.87
2018-03-20T01:02:06.668Z,4.83
2018-03-20T01:05:09.155Z,4.40
2018-03-20T01:08:11.605Z,4.60
2018-03-20T01:11:14.091Z,4.93
2018-03-20T01:14:16.569Z,5.33
2018-03-20T01:17:19.000Z,5.40
2018-03-20T01:20:21.529Z,5.27
2018-03-20T01:23:23.979Z,5.60
2018-03-20T01:26:26.503Z,6.70
2018-03-20T01:29:28.988Z,6.90
2018-03-20T01:32:31.494Z,6.77
2018-03-20T01:35:33.957Z,5.63
2018-03-20T01:38:36.498Z,6.40
2018-03-20T01:41:39.038Z,5.57
2018-03-20T01:44:41.594Z,5.90
2018-03-20T01:47:44.161Z,5.70
2018-03-20T01:50:46.589Z,6.27
2018-03-20T01:53:49.103Z,6.87
2018-03-20T01:56:51.668Z,6.87
2018-03-20T01:59:54.145Z,6.73
2018-03-20T02:02:56.690Z,6.40
2018-03-20T02:05:59.171Z,7.03
2018-03-20T02:09:01.653Z,7.33
2018-03-20T02:12:04.180Z,6.73
2018-03-20T02:15:06.658Z,7.40
2018-03-20T02:18:09.198Z,7.90
2018-03-20T02:21:11.674Z,7.03
2018-03-20T02:24:14.114Z,7.60
2018-03-20T02:27:16.674Z,8.60
2018-03-20T02:30:19.140Z,7.40
2018-03-20T02:33:21.722Z,7.73
2018-03-20T02:36:24.266Z,7.83
2018-03-20T02:39:26.752Z,6.67
2018-03-20T02:42:29.211Z,6.70
2018-03-20T02:45:31.701Z,7.37
2018-03-20T02:48:34.181Z,7.70
2018-03-20T02:51:36.665Z,7.73
2018-03-20T02:54:39.234Z,7.77
2018-03-20T02:57:41.695Z,8.30
2018-03-20T03:00:44.161Z,7.60
2018-03-20T03:03:46.721Z,7.90
2018-03-20T03:06:49.216Z,7.90
2018-03-20T03:09:51.737Z,7.87
2018-03-20T03:12:54.305Z,7.10
2018-03-20T03:15:56.789Z,8.60
2018-03-20T03:18:59.264Z,7.97
2018-03-20T03:22:01.769Z,7.27
2018-03-20T03:25:04.284Z,7.90
2018-03-20T03:28:06.770Z,7.33
2018-03-20T03:31:09.221Z,7.53
2018-03-20T03:34:11.727Z,7.13
2018-03-20T03:37:14.294Z,7.20
2018-03-20T03:40:16.859Z,7.80
2018-03-20T03:43:19.395Z,7.87
2018-03-20T03:46:21.880Z,8.70
2018-03-20T03:49:24.371Z,9.00
2018-03-20T03:52:26.910Z,9.63
2018-03-20T03:55:29.411Z,9.53
2018-03-20T03:58:31.930Z,9.60
2018-03-20T04:01:34.486Z,10.50
2018-03-20T04:04:37.009Z,10.17
2018-03-20T04:07:39.460Z,10.20
2018-03-20T04:10:41.972Z,10.30
2018-03-20T04:13:44.532Z,9.70
2018-03-20T04:16:47.097Z,9.73
2018-03-20T04:19:49.565Z,10.83
2018-03-20T04:22:52.016Z,10.63
2018-03-20T04:25:54.586Z,9.97
2018-03-20T04:28:57.141Z,10.60
2018-03-20T04:31:59.605Z,10.60
2018-03-20T04:35:02.173Z,11.13
2018-03-20T04:38:04.631Z,11.40
2018-03-20T04:41:07.190Z,10.20
2018-03-20T04:44:09.709Z,9.87
2018-03-20T04:47:12.216Z,10.93
2018-03-20T04:50:14.680Z,11.20
2018-03-20T04:53:17.165Z,10.20
2018-03-20T04:56:19.622Z,10.23
2018-03-20T04:59:22.160Z,9.27
2018-03-20T05:02:24.724Z,10.10
2018-03-20T05:05:27.186Z,9.20
2018-03-20T05:08:29.745Z,9.90
2018-03-20T05:11:32.303Z,9.00
2018-03-20T05:14:34.871Z,8.70
2018-03-20T05:17:38.978Z,8.10
2018-03-20T05:20:46.961Z,8.27
2018-03-20T05:23:49.856Z,9.17
2018-03-20T05:26:52.321Z,8.33
2018-03-20T05:29:54.813Z,8.03
2018-03-20T05:32:57.412Z,8.33
2018-03-20T05:35:59.970Z,8.20
2018-03-20T05:39:02.466Z,8.97
2018-03-20T05:42:04.945Z,7.90
2018-03-20T05:45:07.418Z,8.37
2018-03-20T05:48:15.558Z,7.83
2018-03-20T05:54:52.949Z,7.90
2018-03-20T05:57:55.440Z,9.10
2018-03-20T06:00:57.923Z,9.53
2018-03-20T06:04:00.423Z,9.33
2018-03-20T06:07:02.951Z,9.50
2018-03-20T06:10:05.628Z,8.83
2018-03-20T06:13:08.136Z,10.73
2018-03-20T06:16:10.641Z,10.23
2018-03-20T06:19:13.162Z,9.70
2018-03-20T06:22:15.621Z,9.33
2018-03-20T06:25:18.101Z,9.93
2018-03-20T06:28:20.648Z,10.20
2018-03-20T06:31:23.151Z,9.57
2018-03-20T06:34:25.606Z,9.87
2018-03-20T06:37:28.075Z,8.93
2018-03-20T06:40:30.517Z,8.80
2018-03-20T06:43:32.981Z,9.30
2018-03-20T06:46:35.460Z,7.37
2018-03-20T06:49:37.926Z,8.10
2018-03-20T06:52:40.424Z,7.70
2018-03-20T06:55:42.936Z,7.03
2018-03-20T06:58:45.494Z,7.73
2018-03-20T07:01:47.977Z,7.13
2018-03-20T07:04:50.443Z,7.70
2018-03-20T07:07:52.919Z,7.83
2018-03-20T07:10:55.447Z,7.63
2018-03-20T07:13:57.903Z,6.77
2018-03-20T07:17:00.465Z,5.70
2018-03-20T07:20:02.973Z,6.37
2018-03-20T07:23:05.535Z,6.10
2018-03-20T07:26:07.966Z,5.70
2018-03-20T07:29:10.447Z,5.40
2018-03-20T07:32:12.974Z,5.57
2018-03-20T07:35:15.440Z,6.30
2018-03-20T07:38:17.892Z,5.50
2018-03-20T07:41:20.458Z,6.00
2018-03-20T07:44:22.883Z,6.60
2018-03-20T07:47:25.478Z,5.93
2018-03-20T07:50:27.940Z,6.40
2018-03-20T07:53:30.527Z,6.43
2018-03-20T07:56:32.974Z,6.50
2018-03-20T07:59:35.469Z,5.80
2018-03-20T08:02:37.983Z,5.60
2018-03-20T08:05:40.452Z,6.07
2018-03-20T08:08:43.014Z,4.50
2018-03-20T08:11:46.398Z,5.43
2018-03-20T08:14:48.958Z,4.87
2018-03-20T08:17:51.392Z,5.27
2018-03-20T08:20:53.885Z,5.57
2018-03-20T08:23:56.425Z,5.30
2018-03-20T08:26:58.899Z,5.50
2018-03-20T08:30:01.468Z,4.93
2018-03-20T08:33:03.968Z,5.10
2018-03-20T08:36:06.434Z,5.00
2018-03-20T08:39:09.049Z,5.20
2018-03-20T08:42:11.569Z,5.10
2018-03-20T08:45:14.100Z,5.57
2018-03-20T08:48:16.568Z,6.20
2018-03-20T08:51:19.095Z,5.67
2018-03-20T08:54:21.650Z,6.33
2018-03-20T08:57:24.196Z,5.70
2018-03-20T09:00:26.675Z,6.20
2018-03-20T09:03:29.249Z,6.00
2018-03-20T09:06:31.730Z,5.83
2018-03-20T09:09:34.184Z,5.40
2018-03-20T09:12:36.653Z,5.47
2018-03-20T09:15:39.130Z,5.50
2018-03-20T09:18:41.585Z,5.47
2018-03-20T09:21:44.104Z,6.07
2018-03-20T09:24:46.569Z,5.67
2018-03-20T09:27:49.126Z,5.30
2018-03-20T09:30:51.595Z,5.73
2018-03-20T09:33:54.052Z,5.60
2018-03-20T09:36:56.526Z,5.07
2018-03-20T09:39:59.075Z,6.00
2018-03-20T09:43:01.639Z,5.00
2018-03-20T09:46:04.102Z,4.93
2018-03-20T09:49:06.706Z,4.90
2018-03-20T09:52:09.148Z,5.20
2018-03-20T09:55:11.631Z,4.30
2018-03-20T09:58:14.094Z,4.97
2018-03-20T10:01:16.605Z,4.13
2018-03-20T10:04:19.096Z,4.50
2018-03-20T10:07:21.530Z,3.80
2018-03-20T10:10:24.092Z,4.10
2018-03-20T10:13:26.572Z,3.70
2018-03-20T10:16:29.068Z,4.10
2018-03-20T10:19:31.567Z,3.00
2018-03-20T10:22:34.140Z,3.10
2018-03-20T10:25:36.592Z,3.10
2018-03-20T10:28:39.056Z,3.23
2018-03-20T10:31:41.522Z,2.83
2018-03-20T10:34:43.945Z,2.80
2018-03-20T10:37:46.434Z,2.60
2018-03-20T10:40:48.869Z,2.87
2018-03-20T10:43:51.523Z,2.70
2018-03-20T10:46:53.917Z,2.40
2018-03-20T10:49:56.416Z,2.70
2018-03-20T10:52:58.845Z,2.50
2018-03-20T10:56:01.345Z,2.53
2018-03-20T10:59:03.787Z,2.90
2018-03-20T11:02:11.950Z,2.60
2018-03-20T11:05:14.395Z,2.23
2018-03-20T11:08:16.978Z,2.57
2018-03-20T11:11:19.427Z,2.27
2018-03-20T11:14:21.910Z,2.47
2018-03-20T11:17:24.331Z,2.70
2018-03-20T11:20:26.821Z,2.10
2018-03-20T11:23:29.311Z,2.33
2018-03-20T11:26:31.820Z,2.13
2018-03-20T11:29:34.326Z,2.37
2018-03-20T11:32:36.824Z,2.40
2018-03-20T11:35:39.307Z,2.20
2018-03-20T11:38:41.724Z,2.33
2018-03-20T11:41:44.224Z,2.10
2018-03-20T11:44:46.785Z,2.30
2018-03-20T11:47:49.207Z,1.80
2018-03-20T11:50:51.837Z,1.90
2018-03-20T11:53:54.285Z,1.93
2018-03-20T11:56:56.856Z,2.00
2018-03-20T11:59:59.328Z,1.80
2018-03-20T12:03:01.757Z,1.90
2018-03-20T12:06:04.236Z,1.80
2018-03-20T12:09:17.647Z,1.90
2018-03-20T12:12:20.102Z,2.23
2018-03-20T12:15:22.684Z,1.93
2018-03-20T12:18:25.141Z,2.10
2018-03-20T12:21:27.694Z,2.33
2018-03-20T12:24:30.148Z,1.93
2018-03-20T12:27:32.716Z,1.63
2018-03-20T12:30:35.385Z,2.00
2018-03-20T12:33:37.842Z,1.53
2018-03-20T12:36:40.389Z,1.47
2018-03-20T12:39:42.871Z,1.70
2018-03-20T12:42:45.321Z,1.60
2018-03-20T12:45:47.783Z,1.60
2018-03-20T12:48:50.347Z,1.70
2018-03-20T12:51:52.918Z,1.90
2018-03-20T12:54:55.467Z,1.90
2018-03-20T12:57:57.931Z,1.50
2018-03-20T13:01:00.477Z,1.90
2018-03-20T13:04:02.961Z,1.80
2018-03-20T13:07:05.442Z,1.60
2018-03-20T13:10:08.569Z,1.83
2018-03-20T13:13:11.209Z,1.60
2018-03-20T13:16:13.646Z,1.53
2018-03-20T13:19:16.183Z,1.60
2018-03-20T13:22:18.592Z,1.70
2018-03-20T13:25:21.047Z,1.70
2018-03-20T13:28:23.580Z,1.60
2018-03-20T13:31:26.127Z,1.83
2018-03-20T13:34:28.687Z,1.83
2018-03-20T13:37:31.231Z,1.50
2018-03-20T13:40:33.714Z,1.70
2018-03-20T13:43:36.278Z,1.50
2018-03-20T13:46:38.813Z,1.63
2018-03-20T13:49:41.298Z,1.70
2018-03-20T13:52:49.141Z,1.70
2018-03-20T13:55:46.427Z,1.60
2018-03-20T13:58:48.879Z,2.13
2018-03-20T14:01:51.443Z,1.87
2018-03-20T14:04:53.932Z,1.70
2018-03-20T14:07:56.573Z,1.57
2018-03-20T14:10:59.032Z,1.60
2018-03-20T14:14:01.600Z,1.60
2018-03-20T14:17:04.159Z,1.60
2018-03-20T14:20:07.540Z,1.60
2018-03-20T14:23:10.002Z,2.00
2018-03-20T14:26:12.503Z,1.87
2018-03-20T14:29:14.974Z,1.70
2018-03-20T14:32:17.539Z,1.70
2018-03-20T14:35:20.051Z,1.93
2018-03-20T14:38:22.619Z,1.47
2018-03-20T14:41:25.081Z,1.63
2018-03-20T14:44:27.667Z,1.70
2018-03-20T14:47:30.179Z,1.77
2018-03-20T14:50:32.632Z,2.23
2018-03-20T14:53:35.217Z,1.53
2018-03-20T14:56:37.724Z,1.77
2018-03-20T14:59:40.226Z,1.70
2018-03-20T15:02:42.663Z,1.60
2018-03-20T15:05:45.274Z,1.50
2018-03-20T15:08:47.760Z,1.80
2018-03-20T15:11:50.334Z,2.17
2018-03-20T15:14:52.774Z,1.80
2018-03-20T15:17:55.234Z,1.70
2018-03-20T15:20:57.779Z,1.70
2018-03-20T15:24:00.266Z,1.77
2018-03-20T15:27:02.805Z,2.00
2018-03-20T15:30:05.310Z,1.70
2018-03-20T15:33:07.921Z,1.63
2018-03-20T15:36:10.484Z,1.70
2018-03-20T15:39:13.153Z,1.93
2018-03-20T15:42:15.628Z,1.50
2018-03-20T15:45:18.118Z,1.60
2018-03-20T15:48:20.635Z,2.03
2018-03-20T15:51:23.203Z,1.57
2018-03-20T15:54:25.760Z,1.57
2018-03-20T15:57:28.229Z,1.73
2018-03-20T16:00:30.784Z,1.50
2018-03-20T16:03:33.251Z,1.60
2018-03-20T16:06:35.747Z,1.70
2018-03-20T16:09:38.244Z,1.77
2018-03-20T16:12:40.757Z,1.70
2018-03-20T16:15:43.268Z,1.67
2018-03-20T16:18:45.752Z,1.60
2018-03-20T16:21:48.193Z,2.37
2018-03-20T16:24:50.770Z,1.93
2018-03-20T16:27:53.233Z,1.43
2018-03-20T16:30:55.722Z,1.90
2018-03-20T16:33:58.164Z,1.73
2018-03-20T16:37:00.641Z,1.60
2018-03-20T16:40:03.189Z,1.70
2018-03-20T16:43:05.765Z,1.87
2018-03-20T16:46:08.329Z,2.10
2018-03-20T16:49:10.818Z,2.00
2018-03-20T16:52:13.274Z,1.80
2018-03-20T16:55:15.784Z,1.63
2018-03-20T16:58:18.294Z,1.77
2018-03-20T17:01:20.810Z,1.83
2018-03-20T17:04:23.377Z,1.77
2018-03-20T17:07:25.856Z,1.80
2018-03-20T17:10:28.385Z,2.00
2018-03-20T17:13:30.965Z,2.40
2018-03-20T17:16:33.425Z,2.40
2018-03-20T17:19:36.002Z,2.20
2018-03-20T17:22:38.511Z,1.90
2018-03-20T17:25:41.005Z,2.10
2018-03-20T17:28:43.474Z,2.60
2018-03-20T17:31:45.972Z,2.07
2018-03-20T17:34:48.431Z,1.70
2018-03-20T17:37:50.936Z,1.73
2018-03-20T17:40:53.514Z,2.10
2018-03-20T17:43:56.020Z,2.30
2018-03-20T17:46:58.565Z,2.10
2018-03-20T17:50:01.026Z,2.20
2018-03-20T17:53:03.552Z,2.03
2018-03-20T17:56:05.999Z,2.20
2018-03-20T17:59:08.476Z,2.37
2018-03-20T18:02:10.986Z,1.90
2018-03-20T18:05:13.507Z,2.20
2018-03-20T18:08:16.001Z,2.20
2018-03-20T18:11:18.480Z,2.37
2018-03-20T18:14:21.031Z,2.20
2018-03-20T18:17:23.463Z,2.10
2018-03-20T18:20:25.965Z,2.07
2018-03-20T18:23:28.485Z,2.00
2018-03-20T18:26:30.961Z,2.10
2018-03-20T18:29:33.507Z,2.60
2018-03-20T18:32:36.026Z,3.00
2018-03-20T18:35:38.542Z,2.90
2018-03-20T18:38:41.072Z,2.97
2018-03-20T18:41:43.515Z,2.30
2018-03-20T18:44:46.001Z,2.70
2018-03-20T18:47:48.501Z,2.60
2018-03-20T18:50:51.129Z,2.67
2018-03-20T18:53:53.527Z,2.60
2018-03-20T18:56:56.150Z,2.80
2018-03-20T18:59:58.686Z,2.80
2018-03-20T19:03:01.204Z,2.70
2018-03-20T19:06:03.718Z,2.53
2018-03-20T19:09:06.302Z,3.30
2018-03-20T19:12:08.860Z,3.20
2018-03-20T19:15:11.432Z,3.20
2018-03-20T19:18:14.092Z,4.20
2018-03-20T19:21:16.660Z,4.37
2018-03-20T19:24:19.217Z,3.60
2018-03-20T19:27:21.701Z,3.60
2018-03-20T19:30:24.204Z,3.00
2018-03-20T19:33:26.741Z,2.90
2018-03-20T19:36:29.232Z,3.27
2018-03-20T19:39:31.777Z,2.80
2018-03-20T19:42:34.258Z,2.67
2018-03-20T19:45:36.772Z,2.80
2018-03-20T19:48:39.307Z,2.67
2018-03-20T19:51:41.868Z,2.83
2018-03-20T19:54:44.438Z,2.90
2018-03-20T19:57:46.971Z,2.70
2018-03-20T20:00:49.436Z,2.90
2018-03-20T20:03:51.946Z,2.67
2018-03-20T20:06:54.399Z,2.30
2018-03-20T20:09:56.942Z,3.90
2018-03-20T20:12:59.402Z,2.90
2018-03-20T20:16:01.971Z,3.60
2018-03-20T20:19:04.478Z,3.17
2018-03-20T20:22:07.022Z,3.37
2018-03-20T20:25:09.548Z,3.20
2018-03-20T20:28:12.033Z,3.30
2018-03-20T20:31:14.677Z,3.10
2018-03-20T20:34:17.235Z,3.20
2018-03-20T20:37:19.903Z,3.83
2018-03-20T20:40:22.366Z,3.40
2018-03-20T20:43:24.926Z,3.90
2018-03-20T20:46:27.504Z,5.07
2018-03-20T20:49:30.014Z,4.20
2018-03-20T20:52:32.536Z,5.03
2018-03-20T20:55:35.033Z,3.67
2018-03-20T20:58:37.559Z,3.60
2018-03-20T21:01:40.007Z,3.90
2018-03-20T21:04:42.521Z,3.30
2018-03-20T21:07:45.058Z,4.50
2018-03-20T21:10:47.582Z,3.70
2018-03-20T21:13:50.093Z,4.50
2018-03-20T21:16:52.707Z,3.80
2018-03-20T21:19:55.272Z,3.33
2018-03-20T21:22:57.783Z,3.80
2018-03-20T21:26:00.315Z,3.90
2018-03-20T21:29:02.819Z,3.20
2018-03-20T21:32:05.335Z,3.60
2018-03-20T21:35:07.904Z,4.03
2018-03-20T21:38:10.457Z,3.30
2018-03-20T21:41:13.013Z,3.57
2018-03-20T21:44:15.468Z,3.93
2018-03-20T21:47:17.997Z,3.67
2018-03-20T21:50:20.494Z,3.20
2018-03-20T21:53:22.958Z,3.50
2018-03-20T21:56:25.519Z,3.50
2018-03-20T21:59:28.163Z,3.40
2018-03-20T22:02:30.766Z,3.23
2018-03-20T22:05:33.285Z,3.33
2018-03-20T22:08:35.748Z,3.40
2018-03-20T22:11:38.294Z,3.00
2018-03-20T22:14:40.929Z,3.83
2018-03-20T22:17:43.362Z,3.00
2018-03-20T22:20:45.938Z,3.97
2018-03-20T22:23:48.460Z,4.43
2018-03-20T22:26:50.949Z,3.77
2018-03-20T22:29:53.462Z,3.67
2018-03-20T22:32:55.981Z,4.07
2018-03-20T22:35:58.510Z,4.27
2018-03-20T22:39:01.090Z,3.67
2018-03-20T22:42:03.576Z,3.50
2018-03-20T22:45:06.064Z,3.03
2018-03-20T22:48:08.568Z,3.63
2018-03-20T22:51:11.064Z,3.40
2018-03-20T22:54:13.560Z,3.17
2018-03-20T22:57:16.114Z,3.90
2018-03-20T23:00:28.452Z,3.30
2018-03-20T23:03:31.030Z,3.20
2018-03-20T23:06:33.507Z,3.37
2018-03-20T23:09:35.949Z,3.40
2018-03-20T23:12:38.469Z,3.27
2018-03-20T23:15:40.965Z,3.40
2018-03-20T23:18:43.498Z,3.50
2018-03-20T23:21:46.109Z,3.20
2018-03-20T23:24:48.620Z,3.70
2018-03-20T23:27:51.130Z,3.53
2018-03-20T23:30:53.591Z,3.60
2018-03-20T23:33:56.075Z,3.43
2018-03-20T23:36:58.517Z,3.03
2018-03-20T23:40:00.991Z,3.50
2018-03-20T23:43:03.433Z,3.50
2018-03-20T23:46:05.961Z,2.83
2018-03-20T23:49:08.439Z,3.33
2018-03-20T23:52:10.985Z,3.40
2018-03-20T23:55:13.567Z,3.20
2018-03-20T23:58:16.029Z,3.73
